Terminal Aerodrome Forecast
Issued by NWS Wakefield, VA

Home | Current Version | Previous Version | Text Only | Print | Product List | Glossary On
Versions: 1 2 3 4 5 6 7 8 9 10 11 12 13 14 15 16 17 18 19 20 21 22
281
FTUS41 KAKQ 270521
TAFSBY
TAF
KSBY 270521Z 2706/2806 19006KT 5SM -SHRA BR OVC045
     FM270800 20006KT 5SM -SHRA BR OVC030
     FM271200 23005KT 4SM SHRA OVC015
     FM271500 31005KT 5SM -SHRA OVC015
     FM272000 08004KT 6SM -SHRA OVC020
     FM280000 00000KT 6SM -SHRA OVC040=

USA.gov is the U.S. government's official web portal to all federal, state and local government web resources and services.